»·PEaware :: DAL621 KSEA-KSLC

DAL621 :: KSEA-KSLC

FLIGHT INFORMATION

Flight Status: Arrived
Operator:
Delta Air Lines
More flights by this operator :: More flights under this callsign
Pilot: Anonymous 21174 (21174)
Aircraft: BOEING 767-300
(B763)
More flights by this aircraft type
Origin: KSEA Seattle-Tacoma Intl
United States
Destination: KSLC Salt Lake City Intl
United States
More flights between these airports :: More routes between these airports
Route: SUMMA2 SUMMA WANTA Q154 BYI SKEES5
File this flight plan on PilotEdge
Remarks: RMK / SIMBRIEF
Altitude:
(Current/Filed)
37,000ft
Speed:
(Current/Filed)
445kts
Departed: 18-Oct-20 07:04 PM
Arrived: 18-Oct-20 08:27 PM
Distance/Time
Traveled:
597nm/1:22
Distance/Time
To Go:
Arrived

Flight Plot

Page will automatically refresh every two minutes.

Flight plan parsing failed; only flown route is shown


Map Options




Map Legend


Flown Route
Filed Route
Departure Airport
Arrival Airport
Navaid (VOR, NDB)
Fix

Horizontal Profiles

Position Reports

Time Latitude Longitude Heading Altitude Ground
Speed
18-Oct-20 18:42 47.448049 -122.303166 44 404ft 0kts
18-Oct-20 18:43 47.448049 -122.303166 44 404ft 0kts
18-Oct-20 18:44 47.448049 -122.303166 44 404ft 0kts
18-Oct-20 18:45 47.448049 -122.303166 44 404ft 0kts
18-Oct-20 18:46 47.448049 -122.303166 44 404ft 0kts
18-Oct-20 18:47 47.448049 -122.303166 44 404ft 0kts
18-Oct-20 18:48 47.448049 -122.303166 44 404ft 0kts
18-Oct-20 18:49 47.448049 -122.303166 44 404ft 0kts
18-Oct-20 18:50 47.448049 -122.303166 44 404ft 0kts
18-Oct-20 18:51 47.448049 -122.303166 44 404ft 0kts
18-Oct-20 18:52 47.447816 -122.303488 29 403ft 2kts
18-Oct-20 18:53 47.447255 -122.303362 310 401ft 1kts
18-Oct-20 18:54 47.447210 -122.303274 306 401ft 0kts
18-Oct-20 18:55 47.447210 -122.303274 306 401ft 0kts
18-Oct-20 18:56 47.447210 -122.303274 306 401ft 0kts
18-Oct-20 18:58 47.448750 -122.306257 356 407ft 8kts
18-Oct-20 18:59 47.450474 -122.306257 1 415ft 5kts
18-Oct-20 19:00 47.453937 -122.306236 1 431ft 20kts
18-Oct-20 19:01 47.460712 -122.306166 0 441ft 24kts
18-Oct-20 19:02 47.463455 -122.306231 338 423ft 0kts
18-Oct-20 19:03 47.463525 -122.306299 324 422ft 4kts
18-Oct-20 19:04 47.458135 -122.307799 180 439ft 91kts
18-Oct-20 19:05 47.414868 -122.317827 188 1998ft 200kts
18-Oct-20 19:06 47.348195 -122.318198 178 4611ft 260kts
18-Oct-20 19:07 47.274400 -122.311675 178 4999ft 261kts
18-Oct-20 19:08 47.203348 -122.281805 162 8308ft 273kts
18-Oct-20 19:09 47.126322 -122.242235 165 10377ft 338kts
18-Oct-20 19:10 47.029964 -122.193962 166 13198ft 381kts
18-Oct-20 19:11 46.926318 -122.142230 167 16376ft 403kts
18-Oct-20 19:12 46.817631 -122.087987 167 19346ft 420kts
18-Oct-20 19:13 46.704485 -122.031546 167 22141ft 436kts
18-Oct-20 19:14 46.597636 -121.938055 134 24224ft 469kts
18-Oct-20 19:15 46.530692 -121.769466 119 26628ft 488kts
18-Oct-20 19:16 46.461236 -121.595092 122 28820ft 504kts
18-Oct-20 19:16 46.398292 -121.448361 122 30562ft 516kts
18-Oct-20 19:18 46.308870 -121.240831 121 33160ft 518kts
18-Oct-20 19:18 46.244732 -121.092907 121 34657ft 519kts
18-Oct-20 19:20 46.154541 -120.886217 120 36457ft 518kts
18-Oct-20 19:20 46.089954 -120.739123 119 37053ft 520kts
18-Oct-20 19:21 46.012254 -120.563209 119 37066ft 519kts
18-Oct-20 19:22 45.934762 -120.388843 119 37071ft 515kts
18-Oct-20 19:23 45.856694 -120.214289 120 37047ft 517kts
18-Oct-20 19:24 45.778450 -120.040421 120 37049ft 517kts
18-Oct-20 19:25 45.699550 -119.866172 120 37051ft 518kts
18-Oct-20 19:26 45.620635 -119.692970 120 37055ft 517kts
18-Oct-20 19:27 45.541665 -119.520687 120 37066ft 516kts
18-Oct-20 19:28 45.462380 -119.348777 121 37082ft 516kts
18-Oct-20 19:29 45.382884 -119.177447 121 37054ft 517kts
18-Oct-20 19:30 45.302955 -119.006214 121 37075ft 517kts
18-Oct-20 19:31 45.222700 -118.835332 120 37078ft 517kts
18-Oct-20 19:32 45.142209 -118.664941 120 37098ft 518kts
18-Oct-20 19:33 45.061581 -118.495291 120 37130ft 518kts
18-Oct-20 19:34 44.979621 -118.327058 125 37126ft 519kts
18-Oct-20 19:35 44.892152 -118.164249 125 37119ft 518kts
18-Oct-20 19:36 44.804135 -118.001430 125 37113ft 516kts
18-Oct-20 19:37 44.716337 -117.839954 124 37115ft 516kts
18-Oct-20 19:38 44.628381 -117.679062 124 37119ft 515kts
18-Oct-20 19:39 44.540104 -117.518496 124 37122ft 516kts
18-Oct-20 19:40 44.451811 -117.358793 124 37121ft 516kts
18-Oct-20 19:41 44.363365 -117.199693 125 37080ft 516kts
18-Oct-20 19:42 44.282220 -117.034236 121 37076ft 514kts
18-Oct-20 19:43 44.201029 -116.868404 121 37079ft 514kts
18-Oct-20 19:44 44.119661 -116.703190 121 37080ft 513kts
18-Oct-20 19:45 44.038623 -116.539584 121 37082ft 512kts
18-Oct-20 19:46 43.957554 -116.376827 121 37084ft 507kts
18-Oct-20 19:47 43.876642 -116.215287 122 37064ft 509kts
18-Oct-20 19:48 43.795077 -116.053333 122 37069ft 510kts
18-Oct-20 19:49 43.713396 -115.892057 122 37070ft 509kts
18-Oct-20 19:50 43.631140 -115.731352 124 37073ft 508kts
18-Oct-20 19:51 43.545640 -115.575359 124 37083ft 507kts
18-Oct-20 19:52 43.460288 -115.420167 125 37087ft 506kts
18-Oct-20 19:53 43.374680 -115.265329 126 37082ft 505kts
18-Oct-20 19:54 43.289108 -115.111357 126 37096ft 504kts
18-Oct-20 19:55 43.203429 -114.958001 126 37130ft 504kts
18-Oct-20 19:56 43.117556 -114.805090 126 37139ft 503kts
18-Oct-20 19:57 43.031615 -114.652847 126 37136ft 502kts
18-Oct-20 19:58 42.945775 -114.501561 126 37138ft 501kts
18-Oct-20 19:59 42.859850 -114.350907 126 37129ft 500kts
18-Oct-20 20:00 42.774139 -114.201370 127 37124ft 499kts
18-Oct-20 20:01 42.687869 -114.051641 127 37116ft 498kts
18-Oct-20 20:02 42.601473 -113.902419 127 37119ft 501kts
18-Oct-20 20:03 42.505630 -113.765788 135 36834ft 502kts
18-Oct-20 20:04 42.407464 -113.634409 135 34791ft 488kts
18-Oct-20 20:05 42.309894 -113.504524 135 32726ft 492kts
18-Oct-20 20:06 42.212403 -113.375353 135 30680ft 496kts
18-Oct-20 20:07 42.114656 -113.246433 136 28560ft 483kts
18-Oct-20 20:08 42.018865 -113.120682 136 26503ft 474kts
18-Oct-20 20:09 41.925176 -112.998219 136 24546ft 460kts
18-Oct-20 20:10 41.834325 -112.879984 136 22554ft 448kts
18-Oct-20 20:11 41.745695 -112.765106 136 20672ft 434kts
18-Oct-20 20:12 41.659663 -112.654013 136 18886ft 419kts
18-Oct-20 20:13 41.576450 -112.546980 136 17085ft 408kts
18-Oct-20 20:14 41.490878 -112.451956 145 16023ft 390kts
18-Oct-20 20:15 41.415093 -112.346044 132 16021ft 392kts
18-Oct-20 20:16 41.341341 -112.237227 133 14571ft 378kts
18-Oct-20 20:17 41.272590 -112.136513 134 12469ft 367kts
18-Oct-20 20:18 41.188798 -112.070524 155 10251ft 317kts
18-Oct-20 20:19 41.110746 -112.034722 176 9006ft 282kts
18-Oct-20 20:20 41.036813 -112.026011 177 8780ft 260kts
18-Oct-20 20:21 40.969479 -112.018079 176 7489ft 222kts
18-Oct-20 20:22 40.914836 -112.011715 176 6354ft 166kts
18-Oct-20 20:23 40.872969 -112.006830 176 5531ft 144kts
18-Oct-20 20:24 40.833972 -112.002316 174 4777ft 138kts
18-Oct-20 20:25 40.795878 -111.997883 175 4228ft 121kts
18-Oct-20 20:26 40.787233 -111.995188 119 4227ft 1kts
18-Oct-20 20:27 40.788632 -111.993909 354 4227ft 16kts
18-Oct-20 20:28 40.791111 -111.992260 82 4227ft 12kts
18-Oct-20 20:29 40.791717 -111.983352 85 4224ft 31kts
18-Oct-20 20:30 40.790007 -111.980466 116 4227ft 6kts
18-Oct-20 20:31 40.788289 -111.980554 239 4227ft 5kts
18-Oct-20 20:32 40.788175 -111.980893 260 4228ft 0kts
18-Oct-20 20:33 40.788175 -111.980892 260 4228ft 0kts
18-Oct-20 20:34 40.788175 -111.980892 260 4228ft 0kts
18-Oct-20 20:35 40.788175 -111.980892 260 4228ft 0kts

Navigation Log

Ident Type
Flight plan parsing failed, navigation log unavailable